LFPG

Charles de Gaulle International Airport

Paris, France
METAR LFPG 201830Z 21013KT CAVOK 23/12 Q1013 NOSIG
Observed Flight Rules
Sep-20 @ 18:30 UTC (26 minutes ago) Visual Flight Rules
Wind Visibility Clouds
210° at 13 knots 10,000+ meters
Temperatures Readings
Current 23°C / 73°F
Dewpoint 12°C / 54°F
Humidity 50%
Altimeter 29.91" Hg
Pressure 1013 hPa
Elevation 109
METAR LFPG 201830Z 21013KT CAVOK 23/12 Q1013 NOSIG
Observed Flight Rules
Sep-20 @ 18:30 UTC
(26 minutes ago)
VFR
Wind Visibility
210° at 13 knots 10,000+ meters
Clouds
Temperature Dewpoint
23°C / 73°F 12°C / 54°F
Humidity Altimeter Pressure
50% 29.91" Hg 1013 hPa